Greybull, Wyoming
Current Conditions -  °F | °C
As of 5:53 AM on Saturday 25 Oct 2014 (Local Time) from KGEY Reporting Station
Clear Clear  
Wind Chill: 33°   Ceiling: Unl
Heat Index: 33°   Visibility: 10mi
Dew Point: 27°   Wind: 3mph
Humidity: 78%   Direction: 260°W
Pressure: 30.09"   Gusts: NA
Location:  44.49°N, 108.06°W
Report Text: KGEY 251153Z AUTO 26003KT 10SM CLR 01/M03 A3009 RMK AO2 SLP185 T00061028 10083 20006 56007
Loading
Personal Weather Stations






























Interactive Weather Map
Tropical Storm Tracking
New forecast layout! Learn more

10-Day Weather Forecast

Advertisements
Track Severe Weather on mobile